Delta Virtual Airport Information Service

Miami International Airport

ICAO: KMIA Country: United States
Latitude: 25.7932 Longitude: -80.2905
Latest Arrival : DLH462 (1) (EDDF-KMIA) Latest Departure : DAC1425 (KMIA-KATL)


WX CaptureLIVE
Data provided by noaa.gov | Fetched at 23:29:24

METAR : KMIA 250403Z 08014G17KT 10SM FEW012 BKN015 OVC021 24/23 A2993 RMK AO2 T02440228 $

TAF : KMIA 250254Z 2503/2606 10012KT 5SM SHRA SCT010 BKN025 OVC050 FM251000 12012KT P6SM VCSH SCT030 BKN040 FM251400 13015KT P6SM VCTS SCT020CB BKN040 OVC100 FM260200 16010KT P6SM VCSH SCT030 BKN050


Runway Data for KMIA
Data provided by openaviationdata.com

Runway ID Mag Var Hdg Length Elevation Surface ILS Freq ILS Id ILS Slope
08L -5 92° 8595 ft 8 ft Concrete 109.3 IROY 0
08R -5 92° 10498 ft 8 ft Asphalt 110.3 IMFA 3
9 -5 92° 12994 ft 8 ft Concrete 110.9 IBUL 3
12 -5 124° 9357 ft 8 ft Concrete 108.9 IGEM 3
26L -5 272° 10498 ft 8 ft Asphalt 109.1 IVIN 3
26R -5 272° 8595 ft 8 ft Concrete 109.3 ICNV 0
27 -5 272° 12994 ft 8 ft Concrete 109.5 IMIA 3
30 -5 304° 9357 ft 8 ft Concrete 111.7 IDCX 3

Miami International Airport, United States
Use only for reference purposes



Not for navigational purposes.